1930 NOT_NAMED (1930196N18137)


IBTrACS version v04r00. Visit IBTrACS website for data access.
Please direct all questions to the IBTrACS Q and A forum

Storm track - Intensity - Wind Radii - Intensity Data - Source Data - All data

Summary Information

Storm ID 1930196N18137
Start Jul 14 22Z
End Jul 17 22Z
ATCF IDs
Track status Best track data.

Storm track plot

Map of storm track

Intensity plots

No Intensity information for this storm


Radial wind information

No radial wind information for this storm


Position and Intensity Table

BASIN ISO_TIME_________ NATURE LAT LON
degrees north degrees east
WP 1930-07-14 22:00:00 NR 17.60 136.60
WP 1930-07-15 00:00:00 NR 17.78 136.23
WP 03:00:00 NR 18.04 135.67
WP 06:00:00 NR 18.29 135.15
WP 09:00:00 NR 18.53 134.65
WP 10:00:00 NR 18.60 134.50
WP 12:00:00 NR 18.74 134.21
WP 15:00:00 NR 18.94 133.80
WP 18:00:00 NR 19.16 133.40
WP 21:00:00 NR 19.41 132.96
WP 22:00:00 NR 19.50 132.80
WP 1930-07-16 00:00:00 NR 19.72 132.42
WP 03:00:00 NR 20.08 131.80
WP 06:00:00 NR 20.47 131.18
WP 09:00:00 NR 20.87 130.58
WP 10:00:00 NR 21.00 130.40
WP 12:00:00 NR 21.19 130.07
WP 15:00:00 NR 21.47 129.63
WP 18:00:00 NR 21.81 129.24
WP 21:00:00 NR 22.29 128.90
WP 22:00:00 NR 22.50 128.80
WP 1930-07-17 00:00:00 NR 23.04 128.58
WP 03:00:00 NR 24.01 128.30
WP 06:00:00 NR 25.06 128.06
WP 09:00:00 NR 26.09 127.86
WP 10:00:00 NR 26.40 127.80
WP 12:00:00 NR 26.97 127.70
WP 15:00:00 NR 27.71 127.59
WP 18:00:00 NR 28.34 127.50
WP 21:00:00 NR 28.91 127.42
WP 22:00:00 NR 29.10 127.40

Source Information

Agency Information
USA
TOKYO
CMA
HKO
NEWDELHI
REUNION
BOM
NADI
WELLINGTON
DS824
TD9636 cons_worldwide_trop_cyclone_18710101-19891231-003:Line=8574
TD9635
NEUMANN
MLC

All available IBTrACS Data

SEASON BASIN SUBBASIN ISO_TIME_________ NATURE LAT LON DIST2LAND LANDFALL IFLAG USA SSHS TD9636 LAT TD9636 LON TD9636 STAGE STORM SPEED STORM DIR
Year degrees north degrees east km km 1 degrees north degrees east kts degrees
1930 WP MM 1930-07-14 22:00:00 NR 17.60 136.60 1337 1308 __________O___ -1 17.60 136.60 7 12 297
1930 WP MM 1930-07-15 00:00:00 NR 17.78 136.23 1308 1272 __________P___ -1 17.78 136.23 7 12 297
1930 WP MM 03:00:00 NR 18.04 135.67 1272 1235 __________P___ -1 18.04 135.67 7 12 297
1930 WP MM 06:00:00 NR 18.29 135.15 1235 1212 __________P___ -1 18.29 135.15 7 11 297
1930 WP MM 09:00:00 NR 18.53 134.65 1212 1199 __________P___ -1 18.53 134.65 7 10 297
1930 WP MM 10:00:00 NR 18.60 134.50 1199 1175 __________O___ -1 18.60 134.50 7 9 297
1930 WP MM 12:00:00 NR 18.74 134.21 1175 1148 __________P___ -1 18.74 134.21 7 9 297
1930 WP MM 15:00:00 NR 18.94 133.80 1148 1122 __________P___ -1 18.94 133.80 7 9 298
1930 WP MM 18:00:00 NR 19.16 133.40 1127 1103 __________P___ -1 19.16 133.40 7 9 300
1930 WP MM 21:00:00 NR 19.41 132.96 1103 1092 __________P___ -1 19.41 132.96 7 10 301
1930 WP MM 22:00:00 NR 19.50 132.80 1092 1070 __________O___ -1 19.50 132.80 7 12 301
1930 WP MM 1930-07-16 00:00:00 NR 19.72 132.42 1070 1015 __________P___ -1 19.72 132.42 7 13 302
1930 WP MM 03:00:00 NR 20.08 131.80 1015 959 __________P___ -1 20.08 131.80 7 14 303
1930 WP MM 06:00:00 NR 20.47 131.18 962 909 __________P___ -1 20.47 131.18 7 14 305
1930 WP MM 09:00:00 NR 20.87 130.58 912 896 __________P___ -1 20.87 130.58 7 14 306
1930 WP MM 10:00:00 NR 21.00 130.40 896 870 __________O___ -1 21.00 130.40 7 12 304
1930 WP MM 12:00:00 NR 21.19 130.07 873 833 __________P___ -1 21.19 130.07 7 10 303
1930 WP MM 15:00:00 NR 21.47 129.63 837 804 __________P___ -1 21.47 129.63 7 10 309
1930 WP MM 18:00:00 NR 21.81 129.24 804 755 __________P___ -1 21.81 129.24 7 11 321
1930 WP MM 21:00:00 NR 22.29 128.90 755 737 __________P___ -1 22.29 128.90 7 12 329
1930 WP MM 22:00:00 NR 22.50 128.80 737 701 __________O___ -1 22.50 128.80 7 16 339
1930 WP MM 1930-07-17 00:00:00 NR 23.04 128.58 701 646 __________P___ -1 23.04 128.58 7 19 343
1930 WP MM 03:00:00 NR 24.01 128.30 646 614 __________P___ -1 24.01 128.30 7 21 347
1930 WP MM 06:00:00 NR 25.06 128.06 614 596 __________P___ -1 25.06 128.06 7 21 349
1930 WP MM 09:00:00 NR 26.09 127.86 604 594 __________P___ -1 26.09 127.86 7 20 350
1930 WP MM 10:00:00 NR 26.40 127.80 584 527 __________O___ -1 26.40 127.80 3 18 351
1930 WP MM 12:00:00 NR 26.97 127.70 527 464 __________P___ -1 26.97 127.70 3 16 352
1930 WP MM 15:00:00 NR 27.71 127.59 464 415 __________P___ -1 27.71 127.59 3 14 353
1930 WP MM 18:00:00 NR 28.34 127.50 415 371 __________P___ -1 28.34 127.50 3 12 353
1930 WP MM 21:00:00 NR 28.91 127.42 371 356 __________P___ -1 28.91 127.42 3 11 354
1930 WP MM 22:00:00 NR 29.10 127.40 356 __________O___ -1 29.10 127.40 4 11 358